createdAt,value
2018-04-25T00:01:57.948Z,17.35
2018-04-25T00:04:25.559Z,17.90
2018-04-25T00:06:53.942Z,16.95
2018-04-25T00:09:21.515Z,17.20
2018-04-25T00:11:49.875Z,16.40
2018-04-25T00:14:17.476Z,15.32
2018-04-25T00:16:45.092Z,19.10
2018-04-25T00:19:16.520Z,17.25
2018-04-25T00:21:44.119Z,18.70
2018-04-25T00:24:12.483Z,18.33
2018-04-25T00:26:40.119Z,18.08
2018-04-25T00:29:07.703Z,18.75
2018-04-25T00:31:35.316Z,18.90
2018-04-25T00:34:02.897Z,18.40
2018-04-25T00:36:30.532Z,19.10
2018-04-25T00:38:58.115Z,18.87
2018-04-25T00:41:25.698Z,19.55
2018-04-25T00:43:53.268Z,18.48
2018-04-25T00:46:20.866Z,19.12
2018-04-25T00:48:48.502Z,18.37
2018-04-25T00:51:16.115Z,19.73
2018-04-25T00:53:43.707Z,21.08
2018-04-25T00:56:11.315Z,19.95
2018-04-25T00:58:38.893Z,20.48
2018-04-25T01:01:06.486Z,20.55
2018-04-25T01:03:34.111Z,21.20
2018-04-25T01:06:01.728Z,20.15
2018-04-25T01:08:29.303Z,21.62
2018-04-25T01:10:57.667Z,22.30
2018-04-25T01:13:25.239Z,21.00
2018-04-25T01:15:53.642Z,19.77
2018-04-25T01:18:21.214Z,20.42
2018-04-25T01:20:48.870Z,19.65
2018-04-25T01:23:29.261Z,20.33
2018-04-25T01:26:04.297Z,20.08
2018-04-25T01:31:25.727Z,20.05
2018-04-25T01:33:55.258Z,18.58
2018-04-25T01:36:32.390Z,18.05
2018-04-25T01:41:56.380Z,16.50
2018-04-25T01:44:37.722Z,17.25
2018-04-25T01:47:21.162Z,17.02
2018-04-25T01:53:14.250Z,17.15
2018-04-25T01:55:53.644Z,17.58
2018-04-25T01:58:33.233Z,16.05
2018-04-25T02:01:13.511Z,16.45
2018-04-25T02:04:01.749Z,16.80
2018-04-25T02:06:29.348Z,16.42
2018-04-25T02:08:56.936Z,16.73
2018-04-25T02:11:24.568Z,15.73
2018-04-25T02:13:52.161Z,13.45
2018-04-25T02:16:19.772Z,14.85
2018-04-25T02:18:47.351Z,13.80
2018-04-25T02:21:14.972Z,13.18
2018-04-25T02:23:42.573Z,12.65
2018-04-25T02:26:10.195Z,12.77
2018-04-25T02:28:37.805Z,10.90
2018-04-25T02:31:05.417Z,11.00
2018-04-25T02:33:32.981Z,10.70
2018-04-25T02:36:00.656Z,10.50
2018-04-25T02:38:28.263Z,9.98
2018-04-25T02:40:55.888Z,11.25
2018-04-25T02:43:23.525Z,9.50
2018-04-25T02:45:51.109Z,10.20
2018-04-25T02:48:18.712Z,9.85
2018-04-25T02:50:46.342Z,9.15
2018-04-25T02:53:13.979Z,10.63
2018-04-25T02:55:41.873Z,11.48
2018-04-25T02:58:09.566Z,10.70
2018-04-25T03:00:37.131Z,9.80
2018-04-25T03:03:04.715Z,9.98
2018-04-25T03:05:32.300Z,9.60
2018-04-25T03:07:59.916Z,10.00
2018-04-25T03:10:28.290Z,9.80
2018-04-25T03:12:55.869Z,10.05
2018-04-25T03:15:24.222Z,10.15
2018-04-25T03:17:51.882Z,10.18
2018-04-25T03:20:19.469Z,9.75
2018-04-25T03:22:47.827Z,9.80
2018-04-25T03:25:15.380Z,8.43
2018-04-25T03:27:42.970Z,9.82
2018-04-25T03:30:11.287Z,9.68
2018-04-25T03:32:38.926Z,10.93
2018-04-25T03:35:06.520Z,10.43
2018-04-25T03:37:34.117Z,9.88
2018-04-25T03:40:02.496Z,8.83
2018-04-25T03:42:30.104Z,9.77
2018-04-25T03:44:57.724Z,9.32
2018-04-25T03:47:26.068Z,10.48
2018-04-25T03:49:53.660Z,8.95
2018-04-25T03:52:22.019Z,9.00
2018-04-25T03:54:49.612Z,10.38
2018-04-25T03:57:17.247Z,9.80
2018-04-25T03:59:44.891Z,10.05
2018-04-25T04:02:12.475Z,9.40
2018-04-25T04:04:40.832Z,9.80
2018-04-25T04:07:08.403Z,9.52
2018-04-25T04:09:36.515Z,10.35
2018-04-25T04:12:04.101Z,9.48
2018-04-25T04:14:31.714Z,9.52
2018-04-25T04:16:59.295Z,9.77
2018-04-25T04:19:27.738Z,10.30
2018-04-25T04:21:55.408Z,9.90
2018-04-25T04:24:23.014Z,10.50
2018-04-25T04:26:50.629Z,9.73
2018-04-25T04:29:18.294Z,10.10
2018-04-25T04:31:45.889Z,9.98
2018-04-25T04:34:13.503Z,9.88
2018-04-25T04:36:41.107Z,7.72
2018-04-25T04:39:08.724Z,7.95
2018-04-25T04:41:36.322Z,6.70
2018-04-25T04:44:03.903Z,6.18
2018-04-25T04:46:31.568Z,5.65
2018-04-25T04:48:59.148Z,5.40
2018-04-25T04:51:26.748Z,6.60
2018-04-25T04:53:54.406Z,5.75
2018-04-25T04:56:21.963Z,6.62
2018-04-25T04:58:49.576Z,6.65
2018-04-25T05:01:17.154Z,6.87
2018-04-25T05:03:44.783Z,7.47
2018-04-25T05:06:12.391Z,6.45
2018-04-25T05:08:40.079Z,6.87
2018-04-25T05:11:08.389Z,5.25
2018-04-25T05:13:36.041Z,6.60
2018-04-25T05:16:05.393Z,6.03
2018-04-25T05:18:32.986Z,6.05
2018-04-25T05:21:01.367Z,5.95
2018-04-25T05:23:32.748Z,5.65
2018-04-25T05:26:00.528Z,5.22
2018-04-25T05:28:28.754Z,4.85
2018-04-25T05:30:58.172Z,4.93
2018-04-25T05:33:25.813Z,3.87
2018-04-25T05:35:53.522Z,4.75
2018-04-25T05:38:21.107Z,4.60
2018-04-25T05:40:49.550Z,6.30
2018-04-25T05:43:17.172Z,4.68
2018-04-25T05:45:45.533Z,5.28
2018-04-25T05:48:13.254Z,5.82
2018-04-25T05:50:40.921Z,5.97
2018-04-25T05:53:08.534Z,5.60
2018-04-25T05:55:36.102Z,4.28
2018-04-25T05:58:03.689Z,4.00
2018-04-25T06:00:31.305Z,3.65
2018-04-25T06:02:58.859Z,3.60
2018-04-25T06:05:26.484Z,3.03
2018-04-25T06:07:54.047Z,3.50
2018-04-25T06:10:21.648Z,3.17
2018-04-25T06:12:49.271Z,2.80
2018-04-25T06:15:16.826Z,2.92
2018-04-25T06:17:44.594Z,2.42
2018-04-25T06:20:12.244Z,3.30
2018-04-25T06:22:39.789Z,2.58
2018-04-25T06:25:08.178Z,3.25
2018-04-25T06:27:36.505Z,4.10
2018-04-25T06:30:04.104Z,4.28
2018-04-25T06:32:32.441Z,4.10
2018-04-25T06:35:00.007Z,3.90
2018-04-25T06:37:27.565Z,3.35
2018-04-25T06:39:55.178Z,3.70
2018-04-25T06:42:22.779Z,3.95
2018-04-25T06:44:50.439Z,3.70
2018-04-25T06:47:18.095Z,4.03
2018-04-25T06:49:45.661Z,3.47
2018-04-25T06:52:13.241Z,3.60
2018-04-25T06:54:40.826Z,4.82
2018-04-25T06:57:08.421Z,3.30
2018-04-25T06:59:36.080Z,2.60
2018-04-25T07:02:03.650Z,3.17
2018-04-25T07:04:31.196Z,2.92
2018-04-25T07:06:58.840Z,4.12
2018-04-25T07:09:26.418Z,3.20
2018-04-25T07:11:54.244Z,3.58
2018-04-25T07:14:22.587Z,3.67
2018-04-25T07:16:50.942Z,3.10
2018-04-25T07:19:18.547Z,3.67
2018-04-25T07:21:46.133Z,2.95
2018-04-25T07:24:13.744Z,2.90
2018-04-25T07:26:41.389Z,3.50
2018-04-25T07:29:08.961Z,3.00
2018-04-25T07:31:36.593Z,4.87
2018-04-25T07:34:04.267Z,3.25
2018-04-25T07:36:32.615Z,4.62
2018-04-25T07:39:00.184Z,5.53
2018-04-25T07:41:28.235Z,4.68
2018-04-25T07:43:55.865Z,4.30
2018-04-25T07:46:23.441Z,4.70
2018-04-25T07:48:51.057Z,5.30
2018-04-25T07:51:18.647Z,4.85
2018-04-25T07:53:46.245Z,5.18
2018-04-25T07:56:15.064Z,5.00
2018-04-25T07:58:42.740Z,3.90
2018-04-25T08:01:10.333Z,4.90
2018-04-25T08:03:37.893Z,4.85
2018-04-25T08:06:05.809Z,4.43
2018-04-25T08:08:33.431Z,5.68
2018-04-25T08:11:01.015Z,4.20
2018-04-25T08:13:40.709Z,5.50
2018-04-25T08:16:20.204Z,6.10
2018-04-25T08:19:01.268Z,5.47
2018-04-25T08:21:42.245Z,4.62
2018-04-25T08:24:09.804Z,4.28
2018-04-25T08:26:38.180Z,4.65
2018-04-25T08:29:05.765Z,4.28
2018-04-25T08:31:33.356Z,3.55
2018-04-25T08:34:00.945Z,3.95
2018-04-25T08:36:28.530Z,3.80
2018-04-25T08:38:56.904Z,3.85
2018-04-25T08:41:25.260Z,4.45
2018-04-25T08:43:52.973Z,3.60
2018-04-25T08:46:20.799Z,4.00
2018-04-25T08:48:49.175Z,4.20
2018-04-25T08:51:16.748Z,3.37
2018-04-25T08:53:45.192Z,3.62
2018-04-25T08:56:12.768Z,3.05
2018-04-25T08:58:40.373Z,3.95
2018-04-25T09:01:07.945Z,3.55
2018-04-25T09:03:35.524Z,1.70
2018-04-25T09:06:03.093Z,3.05
2018-04-25T09:08:30.667Z,2.50
2018-04-25T09:10:58.277Z,5.12
2018-04-25T09:13:25.845Z,2.75
2018-04-25T09:15:53.412Z,1.90
2018-04-25T09:18:21.018Z,1.95
2018-04-25T09:20:49.342Z,1.90
2018-04-25T09:23:16.933Z,2.15
2018-04-25T09:25:45.338Z,2.25
2018-04-25T09:28:12.907Z,2.12
2018-04-25T09:30:40.557Z,2.20
2018-04-25T09:33:08.134Z,2.97
2018-04-25T09:35:35.787Z,2.78
2018-04-25T09:38:04.518Z,2.67
2018-04-25T09:40:32.081Z,2.30
2018-04-25T09:42:59.665Z,2.33
2018-04-25T09:45:27.217Z,1.60
2018-04-25T09:47:54.790Z,1.90
2018-04-25T09:50:22.346Z,1.60
2018-04-25T09:52:49.952Z,1.23
2018-04-25T09:55:18.338Z,1.45
2018-04-25T09:57:45.924Z,1.50
2018-04-25T10:00:13.535Z,1.00
2018-04-25T10:02:41.896Z,1.20
2018-04-25T10:05:09.519Z,2.30
2018-04-25T10:07:37.119Z,1.30
2018-04-25T10:10:04.738Z,1.35
2018-04-25T10:12:32.349Z,1.48
2018-04-25T10:14:59.998Z,1.37
2018-04-25T10:17:27.581Z,2.30
2018-04-25T10:19:55.193Z,1.45
2018-04-25T10:22:22.824Z,2.28
2018-04-25T10:24:51.173Z,2.33
2018-04-25T10:27:18.777Z,1.52
2018-04-25T10:29:46.364Z,1.73
2018-04-25T10:32:14.121Z,1.92
2018-04-25T10:34:41.687Z,1.73
2018-04-25T10:37:09.327Z,1.90
2018-04-25T10:39:36.905Z,1.45
2018-04-25T10:42:04.551Z,1.50
2018-04-25T10:44:32.145Z,1.80
2018-04-25T10:46:59.747Z,1.77
2018-04-25T10:49:28.105Z,2.20
2018-04-25T10:51:55.686Z,1.85
2018-04-25T10:54:24.063Z,2.95
2018-04-25T10:56:52.489Z,2.05
2018-04-25T10:59:20.123Z,2.42
2018-04-25T11:01:47.719Z,8.75
2018-04-25T11:04:15.394Z,2.28
2018-04-25T11:06:43.007Z,2.25
2018-04-25T11:09:10.648Z,2.42
2018-04-25T11:11:38.243Z,3.08
2018-04-25T11:14:05.840Z,2.20
2018-04-25T11:16:33.506Z,2.03
2018-04-25T11:19:02.007Z,1.65
2018-04-25T11:21:30.347Z,2.00
2018-04-25T11:23:58.164Z,2.40
2018-04-25T11:26:25.769Z,2.97
2018-04-25T11:28:53.361Z,2.25
2018-04-25T11:31:20.945Z,2.87
2018-04-25T11:33:48.583Z,1.90
2018-04-25T11:36:16.171Z,3.40
2018-04-25T11:38:43.861Z,2.95
2018-04-25T11:41:11.472Z,2.40
2018-04-25T11:43:39.052Z,2.28
2018-04-25T11:46:07.456Z,2.65
2018-04-25T11:48:35.076Z,2.10
2018-04-25T11:51:03.474Z,3.00
2018-04-25T11:53:31.881Z,2.50
2018-04-25T11:55:59.481Z,2.37
2018-04-25T11:58:27.087Z,2.50
2018-04-25T12:00:54.714Z,2.15
2018-04-25T12:03:22.364Z,2.87
2018-04-25T12:05:49.948Z,3.40
2018-04-25T12:08:18.277Z,2.90
2018-04-25T12:10:45.987Z,2.37
2018-04-25T12:13:13.582Z,2.37
2018-04-25T12:15:41.199Z,3.62
2018-04-25T12:18:08.778Z,3.10
2018-04-25T12:20:36.364Z,3.15
2018-04-25T12:23:04.375Z,3.20
2018-04-25T12:25:31.959Z,2.62
2018-04-25T12:27:59.621Z,1.92
2018-04-25T12:30:27.318Z,3.70
2018-04-25T12:32:54.932Z,2.90
2018-04-25T12:35:22.505Z,1.70
2018-04-25T12:37:50.114Z,2.90
2018-04-25T12:40:17.719Z,3.00
2018-04-25T12:42:46.123Z,2.42
2018-04-25T12:45:13.736Z,3.05
2018-04-25T12:47:41.333Z,2.60
2018-04-25T12:50:09.313Z,2.87
2018-04-25T12:52:37.088Z,2.22
2018-04-25T12:55:04.795Z,3.33
2018-04-25T12:57:32.399Z,3.62
2018-04-25T13:00:00.009Z,2.72
2018-04-25T13:02:27.597Z,3.92
2018-04-25T13:04:56.031Z,4.03
2018-04-25T13:07:23.699Z,2.70
2018-04-25T13:09:51.303Z,2.90
2018-04-25T13:12:18.952Z,4.57
2018-04-25T13:14:46.523Z,4.15
2018-04-25T13:17:14.099Z,4.40
2018-04-25T13:19:41.756Z,4.50
2018-04-25T13:22:09.709Z,4.55
2018-04-25T13:24:37.327Z,4.22
2018-04-25T13:27:04.932Z,4.47
2018-04-25T13:29:32.942Z,5.27
2018-04-25T13:32:00.506Z,5.37
2018-04-25T13:34:29.020Z,4.90
2018-04-25T13:36:56.592Z,5.07
2018-04-25T13:39:24.161Z,4.30
2018-04-25T13:41:51.786Z,4.80
2018-04-25T13:44:19.464Z,5.57
2018-04-25T13:46:47.172Z,4.78
2018-04-25T13:49:14.707Z,5.45
2018-04-25T13:51:43.068Z,4.45
2018-04-25T13:54:10.699Z,4.35
2018-04-25T13:56:38.290Z,5.72
2018-04-25T13:59:06.043Z,3.92
2018-04-25T14:01:33.977Z,4.97
2018-04-25T14:04:01.617Z,5.90
2018-04-25T14:06:29.988Z,5.62
2018-04-25T14:08:58.351Z,5.28
2018-04-25T14:11:26.065Z,5.45
2018-04-25T14:13:53.645Z,4.50
2018-04-25T14:16:21.234Z,3.65
2018-04-25T14:18:48.824Z,4.80
2018-04-25T14:21:17.175Z,4.55
2018-04-25T14:23:44.807Z,3.67
2018-04-25T14:26:12.383Z,4.95
2018-04-25T14:28:40.795Z,4.10
2018-04-25T14:31:08.388Z,4.72
2018-04-25T14:33:36.005Z,4.65
2018-04-25T14:36:03.606Z,4.32
2018-04-25T14:38:31.211Z,4.28
2018-04-25T14:40:58.859Z,4.25
2018-04-25T14:43:26.449Z,4.18
2018-04-25T14:45:54.065Z,4.40
2018-04-25T14:48:21.695Z,3.53
2018-04-25T14:50:49.300Z,3.97
2018-04-25T14:53:16.905Z,4.47
2018-04-25T14:55:47.697Z,3.10
2018-04-25T14:58:15.273Z,3.78
2018-04-25T15:00:42.891Z,4.28
2018-04-25T15:03:10.849Z,4.37
2018-04-25T15:05:39.173Z,4.33
2018-04-25T15:08:06.752Z,4.18
2018-04-25T15:10:34.341Z,3.50
2018-04-25T15:13:01.975Z,4.68
2018-04-25T15:15:29.616Z,4.00
2018-04-25T15:17:57.301Z,4.00
2018-04-25T15:20:25.112Z,4.40
2018-04-25T15:22:52.806Z,4.05
2018-04-25T15:25:20.459Z,4.97
2018-04-25T15:27:48.050Z,4.57
2018-04-25T15:30:16.821Z,4.45
2018-04-25T15:32:44.448Z,4.60
2018-04-25T15:35:12.109Z,5.03
2018-04-25T15:37:39.715Z,4.53
2018-04-25T15:40:07.368Z,4.80
2018-04-25T15:42:34.988Z,4.40
2018-04-25T15:45:02.656Z,4.50
2018-04-25T15:47:30.419Z,4.45
2018-04-25T15:49:58.065Z,4.03
2018-04-25T15:52:25.663Z,4.90
2018-04-25T15:54:53.248Z,5.47
2018-04-25T15:57:20.843Z,4.47
2018-04-25T15:59:48.457Z,4.15
2018-04-25T16:02:16.066Z,4.78
2018-04-25T16:04:43.672Z,5.82
2018-04-25T16:07:11.323Z,4.17
2018-04-25T16:09:39.718Z,4.47
2018-04-25T16:12:07.375Z,4.20
2018-04-25T16:14:34.952Z,4.70
2018-04-25T16:17:02.558Z,4.10
2018-04-25T16:19:30.172Z,4.03
2018-04-25T16:21:57.787Z,4.28
2018-04-25T16:24:25.438Z,4.32
2018-04-25T16:26:53.056Z,4.05
2018-04-25T16:29:21.403Z,3.83
2018-04-25T16:31:48.982Z,3.27
2018-04-25T16:34:16.835Z,3.90
2018-04-25T16:36:44.446Z,4.82
2018-04-25T16:39:12.848Z,3.42
2018-04-25T16:41:41.141Z,3.35
2018-04-25T16:44:08.807Z,2.95
2018-04-25T16:46:37.401Z,2.22
2018-04-25T16:49:05.638Z,2.65
2018-04-25T16:51:34.137Z,2.10
2018-04-25T16:54:01.754Z,2.90
2018-04-25T16:56:29.468Z,2.35
2018-04-25T16:58:57.055Z,2.25
2018-04-25T17:01:25.469Z,2.20
2018-04-25T17:03:53.303Z,2.30
2018-04-25T17:06:20.975Z,2.55
2018-04-25T17:08:48.978Z,2.75
2018-04-25T17:11:16.624Z,2.87
2018-04-25T17:13:44.274Z,2.95
2018-04-25T17:16:12.767Z,2.20
2018-04-25T17:18:40.526Z,2.25
2018-04-25T17:21:08.251Z,2.17
2018-04-25T17:23:35.908Z,2.50
2018-04-25T17:26:03.495Z,2.62
2018-04-25T17:28:31.108Z,2.65
2018-04-25T17:30:58.710Z,2.67
2018-04-25T17:33:26.870Z,2.77
2018-04-25T17:35:54.525Z,1.87
2018-04-25T17:38:22.085Z,2.97
2018-04-25T17:40:51.048Z,2.70
2018-04-25T17:43:19.196Z,2.90
2018-04-25T17:45:46.868Z,2.35
2018-04-25T17:48:14.490Z,2.90
2018-04-25T17:50:42.175Z,2.30
2018-04-25T17:53:09.757Z,2.78
2018-04-25T17:55:37.367Z,2.87
2018-04-25T17:58:05.434Z,2.62
2018-04-25T18:00:33.031Z,2.25
2018-04-25T18:03:00.640Z,3.20
2018-04-25T18:05:28.241Z,3.15
2018-04-25T18:07:55.813Z,2.58
2018-04-25T18:10:24.213Z,2.62
2018-04-25T18:12:51.787Z,2.53
2018-04-25T18:15:19.357Z,2.85
2018-04-25T18:17:46.957Z,2.42
2018-04-25T18:20:14.565Z,3.15
2018-04-25T18:22:42.952Z,2.90
2018-04-25T18:25:10.563Z,2.65
2018-04-25T18:27:38.138Z,3.12
2018-04-25T18:30:05.793Z,3.83
2018-04-25T18:32:33.388Z,4.28
2018-04-25T18:35:01.805Z,4.28
2018-04-25T18:37:30.225Z,2.20
2018-04-25T18:39:57.945Z,3.50
2018-04-25T18:42:25.597Z,4.12
2018-04-25T18:44:53.271Z,4.20
2018-04-25T18:47:20.876Z,3.58
2018-04-25T18:49:49.243Z,3.55
2018-04-25T18:52:16.861Z,4.20
2018-04-25T18:54:45.270Z,3.25
2018-04-25T18:57:14.375Z,3.40
2018-04-25T18:59:41.966Z,3.00
2018-04-25T19:02:10.393Z,4.03
2018-04-25T19:04:38.049Z,3.72
2018-04-25T19:07:05.666Z,3.33
2018-04-25T19:09:34.091Z,3.03
2018-04-25T19:12:01.694Z,4.50
2018-04-25T19:14:30.095Z,3.08
2018-04-25T19:16:57.705Z,4.37
2018-04-25T19:19:25.313Z,3.70
2018-04-25T19:21:52.930Z,4.12
2018-04-25T19:24:20.515Z,4.03
2018-04-25T19:26:48.084Z,4.72
2018-04-25T19:29:16.482Z,3.20
2018-04-25T19:31:44.075Z,3.85
2018-04-25T19:34:11.636Z,4.30
2018-04-25T19:36:39.231Z,3.62
2018-04-25T19:39:06.829Z,4.35
2018-04-25T19:41:34.483Z,3.85
2018-04-25T19:44:02.824Z,3.22
2018-04-25T19:46:30.459Z,3.35
2018-04-25T19:48:58.431Z,3.70
2018-04-25T19:51:25.996Z,4.10
2018-04-25T19:53:53.594Z,3.87
2018-04-25T19:56:21.167Z,3.62
2018-04-25T19:58:49.576Z,3.10
2018-04-25T20:01:17.255Z,3.55
2018-04-25T20:03:45.081Z,2.85
2018-04-25T20:06:12.841Z,3.55
2018-04-25T20:08:40.397Z,3.20
2018-04-25T20:11:07.966Z,2.70
2018-04-25T20:13:35.881Z,3.80
2018-04-25T20:16:03.460Z,3.65
2018-04-25T20:18:31.059Z,4.25
2018-04-25T20:20:58.638Z,3.70
2018-04-25T20:23:26.255Z,3.53
2018-04-25T20:25:54.573Z,2.87
2018-04-25T20:28:22.112Z,3.95
2018-04-25T20:30:50.484Z,3.97
2018-04-25T20:33:18.814Z,3.90
2018-04-25T20:35:46.401Z,4.03
2018-04-25T20:38:13.987Z,3.10
2018-04-25T20:40:42.309Z,3.65
2018-04-25T20:43:09.924Z,3.12
2018-04-25T20:45:39.138Z,2.80
2018-04-25T20:48:06.747Z,3.45
2018-04-25T20:50:34.347Z,4.00
2018-04-25T20:53:03.566Z,3.53
2018-04-25T20:55:31.141Z,3.28
2018-04-25T20:57:58.754Z,4.10
2018-04-25T21:00:26.379Z,3.58
2018-04-25T21:02:53.929Z,4.07
2018-04-25T21:05:21.609Z,4.37
2018-04-25T21:07:49.218Z,4.60
2018-04-25T21:10:16.779Z,4.60
2018-04-25T21:12:44.380Z,4.12
2018-04-25T21:15:12.028Z,3.30
2018-04-25T21:17:39.629Z,3.60
2018-04-25T21:20:07.290Z,3.80
2018-04-25T21:22:34.834Z,3.95
2018-04-25T21:25:02.431Z,3.60
2018-04-25T21:27:30.017Z,3.72
2018-04-25T21:29:57.653Z,3.60
2018-04-25T21:32:26.031Z,3.20
2018-04-25T21:34:54.421Z,3.67
2018-04-25T21:37:22.059Z,4.50
2018-04-25T21:39:50.357Z,4.45
2018-04-25T21:42:17.920Z,3.42
2018-04-25T21:44:45.467Z,3.05
2018-04-25T21:47:13.806Z,3.78
2018-04-25T21:49:41.428Z,3.92
2018-04-25T21:52:09.528Z,3.37
2018-04-25T21:54:38.362Z,3.85
2018-04-25T21:57:06.310Z,4.20
2018-04-25T21:59:33.997Z,3.67
2018-04-25T22:02:02.635Z,4.62
2018-04-25T22:04:30.568Z,3.40
2018-04-25T22:06:58.985Z,3.85
2018-04-25T22:09:26.950Z,4.43
2018-04-25T22:11:55.653Z,3.80
2018-04-25T22:14:24.084Z,3.92
2018-04-25T22:16:52.034Z,3.42
2018-04-25T22:19:21.229Z,3.75
2018-04-25T22:21:49.211Z,3.95
2018-04-25T22:24:17.225Z,4.28
2018-04-25T22:26:45.887Z,3.25
2018-04-25T22:29:13.516Z,4.10
2018-04-25T22:31:41.916Z,3.17
2018-04-25T22:34:09.642Z,3.42
2018-04-25T22:36:37.243Z,4.03
2018-04-25T22:39:04.865Z,3.92
2018-04-25T22:41:32.477Z,3.10
2018-04-25T22:44:00.965Z,3.60
2018-04-25T22:46:28.575Z,3.03
2018-04-25T22:48:56.230Z,3.78
2018-04-25T22:51:23.802Z,3.25
2018-04-25T22:53:52.171Z,3.20
2018-04-25T22:56:19.775Z,3.33
2018-04-25T22:58:47.388Z,3.33
2018-04-25T23:01:15.001Z,3.22
2018-04-25T23:03:42.620Z,4.28
2018-04-25T23:06:10.636Z,4.03
2018-04-25T23:08:38.243Z,4.40
2018-04-25T23:11:05.841Z,5.00
2018-04-25T23:13:33.425Z,3.80
2018-04-25T23:16:00.970Z,4.37
2018-04-25T23:18:28.580Z,4.70
2018-04-25T23:20:56.205Z,4.12
2018-04-25T23:23:23.781Z,3.92
2018-04-25T23:25:51.360Z,4.40
2018-04-25T23:28:18.938Z,3.55
2018-04-25T23:30:46.896Z,4.72
2018-04-25T23:33:15.400Z,4.82
2018-04-25T23:35:43.784Z,5.05
2018-04-25T23:38:12.244Z,3.97
2018-04-25T23:40:39.806Z,4.50
2018-04-25T23:43:08.184Z,4.30
2018-04-25T23:45:36.542Z,4.40
2018-04-25T23:48:04.126Z,4.12
2018-04-25T23:50:32.514Z,4.18
2018-04-25T23:53:00.758Z,3.30
2018-04-25T23:55:28.389Z,4.40
2018-04-25T23:57:55.939Z,4.05
